Time;durP1;ratioP1;P1;durP2;ratioP2;P2;SDS_P1;SDS_P2;PMS_P1;PMS_P2;Temp;Humidity;BMP_temperature;BMP_pressure;BME280_temperature;BME280_humidity;BME280_pressure;Samples;Min_cycle;Max_cycle;Signal;HPM_P1;HPM_P2
2022/05/18 00:01:51;;;;;;;;;;;14.00;99.90;;;;;;5104039;28;20005;-67
2022/05/18 00:04:17;;;;;;;;;;;13.90;99.90;;;;;;5104344;28;19920;-67
2022/05/18 00:06:42;;;;;;;;;;;13.80;99.90;;;;;;5104811;28;20003;-66
2022/05/18 00:09:08;;;;;;;;;;;13.70;99.90;;;;;;5105963;28;19924;-66
2022/05/18 00:11:33;;;;;;;;;;;13.70;99.90;;;;;;5091189;28;19912;-69
2022/05/18 00:13:59;;;;;;;;;;;13.60;99.90;;;;;;5100788;28;19918;-66
2022/05/18 00:16:26;;;;;;;;;;;13.50;99.90;;;;;;5104236;27;19918;-65
2022/05/18 00:18:52;;;;;;;;;;;13.40;99.90;;;;;;5098685;28;19923;-67
2022/05/18 00:21:17;;;;;;;;;;;13.50;99.90;;;;;;5097822;27;19911;-67
2022/05/18 00:23:44;;;;;;;;;;;13.40;99.90;;;;;;5100461;27;19919;-67
2022/05/18 00:26:09;;;;;;;;;;;13.40;99.90;;;;;;5100434;27;19911;-66
2022/05/18 00:28:35;;;;;;;;;;;13.30;99.90;;;;;;5083044;28;19919;-66
2022/05/18 00:31:01;;;;;;;;;;;13.40;99.90;;;;;;5102722;28;19943;-67
2022/05/18 00:33:26;;;;;;;;;;;13.40;99.90;;;;;;5102905;28;20384;-65
2022/05/18 00:35:52;;;;;;;;;;;13.40;99.90;;;;;;5079915;28;20276;-65
2022/05/18 00:38:17;;;;;;;;;;;13.30;99.90;;;;;;5107302;28;19915;-66
2022/05/18 00:40:46;;;;;;;;;;;13.30;99.90;;;;;;5100651;28;19912;-66
2022/05/18 00:43:17;;;;;;;;;;;13.30;99.90;;;;;;5106336;28;19928;-66
2022/05/18 00:45:42;;;;;;;;;;;13.30;99.90;;;;;;5095733;27;19991;-66
2022/05/18 00:48:08;;;;;;;;;;;13.20;99.90;;;;;;5105225;28;20003;-66
2022/05/18 00:50:34;;;;;;;;;;;13.20;99.90;;;;;;5082661;28;19930;-65
2022/05/18 00:53:03;;;;;;;;;;;13.20;99.90;;;;;;5105948;27;20341;-66
2022/05/18 00:55:30;;;;;;;;;;;13.20;99.90;;;;;;5098261;27;19923;-66
2022/05/18 00:58:15;;;;;;;;;;;13.20;99.90;;;;;;5076025;28;19936;-66
2022/05/18 01:00:41;;;;;;;;;;;13.20;99.90;;;;;;5095193;28;20309;-66
2022/05/18 01:03:10;;;;;;;;;;;13.10;99.90;;;;;;5100890;28;19920;-66
2022/05/18 01:05:37;;;;;;;;;;;13.10;99.90;;;;;;5108070;28;19911;-67
2022/05/18 01:08:03;;;;;;;;;;;13.10;99.90;;;;;;5108756;28;19912;-66
2022/05/18 01:10:28;;;;;;;;;;;13.10;99.90;;;;;;5100232;28;19924;-66
2022/05/18 01:12:55;;;;;;;;;;;13.10;99.90;;;;;;5102417;28;20357;-66
2022/05/18 01:15:21;;;;;;;;;;;13.10;99.90;;;;;;5090971;28;19916;-66
2022/05/18 01:17:49;;;;;;;;;;;13.20;99.90;;;;;;5101682;28;19919;-67
2022/05/18 01:20:19;;;;;;;;;;;13.20;99.90;;;;;;5104379;28;19991;-67
2022/05/18 01:23:04;;;;;;;;;;;13.10;99.90;;;;;;5097628;28;19916;-66
2022/05/18 01:25:39;;;;;;;;;;;13.00;99.90;;;;;;5099501;28;19916;-66
2022/05/18 01:28:04;;;;;;;;;;;13.00;99.90;;;;;;5102228;28;19912;-67
2022/05/18 01:30:31;;;;;;;;;;;13.00;99.90;;;;;;5108186;28;20344;-67
2022/05/18 01:32:57;;;;;;;;;;;13.00;99.90;;;;;;5103278;28;19919;-66
2022/05/18 01:35:27;;;;;;;;;;;12.90;99.90;;;;;;5080172;27;20258;-66
2022/05/18 01:37:57;;;;;;;;;;;12.90;99.90;;;;;;5099858;27;19916;-66
2022/05/18 01:40:40;;;;;;;;;;;12.90;99.90;;;;;;5098903;27;19918;-68
2022/05/18 01:43:17;;;;;;;;;;;12.90;99.90;;;;;;5098765;27;19915;-66
2022/05/18 01:45:42;;;;;;;;;;;12.90;99.90;;;;;;5101974;27;19916;-67
2022/05/18 01:48:09;;;;;;;;;;;13.00;99.90;;;;;;5100277;27;19923;-67
2022/05/18 01:50:35;;;;;;;;;;;13.00;99.90;;;;;;5080932;28;20077;-66
2022/05/18 01:53:01;;;;;;;;;;;13.00;99.90;;;;;;5098705;27;20372;-66
2022/05/18 01:55:26;;;;;;;;;;;13.00;99.90;;;;;;5096927;28;19939;-67
2022/05/18 01:57:52;;;;;;;;;;;13.00;99.90;;;;;;5101190;28;19912;-66
2022/05/18 02:00:17;;;;;;;;;;;13.00;99.90;;;;;;5099651;28;19912;-67
2022/05/18 02:02:43;;;;;;;;;;;13.00;99.90;;;;;;5104290;28;20293;-66
2022/05/18 02:05:09;;;;;;;;;;;13.00;99.90;;;;;;5097913;27;19915;-67
2022/05/18 02:07:34;;;;;;;;;;;13.00;99.90;;;;;;5097683;27;19926;-67
2022/05/18 02:10:00;;;;;;;;;;;13.00;99.90;;;;;;5098018;27;19927;-66
2022/05/18 02:12:26;;;;;;;;;;;13.00;99.90;;;;;;5092887;28;19912;-67
2022/05/18 02:14:51;;;;;;;;;;;13.10;99.90;;;;;;5102330;28;19919;-67
2022/05/18 02:17:17;;;;;;;;;;;13.00;99.90;;;;;;5098827;27;20273;-65
2022/05/18 02:19:42;;;;;;;;;;;13.00;99.90;;;;;;5105405;27;19918;-66
2022/05/18 02:22:08;;;;;;;;;;;13.00;99.90;;;;;;5099791;27;19912;-66
2022/05/18 02:24:33;;;;;;;;;;;13.10;99.90;;;;;;5099819;27;20336;-65
2022/05/18 02:26:59;;;;;;;;;;;13.10;99.90;;;;;;5100190;28;20673;-66
2022/05/18 02:29:25;;;;;;;;;;;13.00;99.90;;;;;;5079245;27;19960;-66
2022/05/18 02:31:50;;;;;;;;;;;13.00;99.90;;;;;;5100794;27;19916;-65
2022/05/18 02:34:16;;;;;;;;;;;13.00;99.90;;;;;;5100332;27;19915;-66
2022/05/18 02:36:42;;;;;;;;;;;13.00;99.90;;;;;;5101588;28;20278;-66
2022/05/18 02:39:08;;;;;;;;;;;13.00;99.90;;;;;;5097182;28;20615;-66
2022/05/18 02:41:33;;;;;;;;;;;12.90;99.90;;;;;;5097589;27;20338;-66
2022/05/18 02:44:00;;;;;;;;;;;12.90;99.90;;;;;;5100249;27;19912;-66
2022/05/18 02:46:25;;;;;;;;;;;12.90;99.90;;;;;;5098322;28;19919;-66
2022/05/18 02:48:51;;;;;;;;;;;12.90;99.90;;;;;;5083127;28;19916;-66
2022/05/18 02:51:17;;;;;;;;;;;12.90;99.90;;;;;;5102700;28;19960;-67
2022/05/18 02:53:42;;;;;;;;;;;12.80;99.90;;;;;;5099843;28;19915;-67
2022/05/18 02:56:10;;;;;;;;;;;12.80;99.90;;;;;;5097156;28;19918;-66
2022/05/18 02:58:37;;;;;;;;;;;12.80;99.90;;;;;;5099084;28;20001;-66
2022/05/18 03:01:03;;;;;;;;;;;12.90;99.90;;;;;;5099147;28;19911;-66
2022/05/18 03:03:29;;;;;;;;;;;12.90;99.90;;;;;;5100167;28;20007;-64
2022/05/18 03:05:55;;;;;;;;;;;12.90;99.90;;;;;;5095502;28;20021;-67
2022/05/18 03:08:20;;;;;;;;;;;13.00;99.90;;;;;;5100163;28;19996;-67
2022/05/18 03:10:46;;;;;;;;;;;13.00;99.90;;;;;;5102769;28;20445;-67
2022/05/18 03:13:11;;;;;;;;;;;13.00;99.90;;;;;;5099877;28;19960;-66
2022/05/18 03:15:37;;;;;;;;;;;13.00;99.90;;;;;;5104733;28;19912;-66
2022/05/18 03:18:03;;;;;;;;;;;12.90;99.90;;;;;;5102681;28;19913;-66
2022/05/18 03:25:57;;;;;;;;;;;12.80;99.90;;;;;;5104198;28;20132;-66
2022/05/18 03:28:22;;;;;;;;;;;12.60;99.90;;;;;;5097746;28;19911;-66
2022/05/18 03:30:48;;;;;;;;;;;12.30;99.90;;;;;;5095210;28;19916;-67
2022/05/18 03:33:13;;;;;;;;;;;12.20;99.90;;;;;;5082948;28;20373;-66
2022/05/18 03:35:39;;;;;;;;;;;12.20;99.90;;;;;;5100518;28;19956;-67
2022/05/18 03:38:05;;;;;;;;;;;12.00;99.90;;;;;;5099459;28;20116;-66
2022/05/18 03:40:37;;;;;;;;;;;11.90;99.90;;;;;;5080896;28;19970;-66
2022/05/18 03:43:03;;;;;;;;;;;11.90;99.90;;;;;;5103867;28;19920;-67
2022/05/18 03:45:29;;;;;;;;;;;11.70;99.90;;;;;;5102095;28;19973;-67
2022/05/18 03:47:55;;;;;;;;;;;11.70;99.90;;;;;;5099534;28;19915;-67
2022/05/18 03:50:21;;;;;;;;;;;11.70;99.90;;;;;;5075808;28;20365;-66
2022/05/18 03:52:46;;;;;;;;;;;11.50;99.90;;;;;;5096227;28;20058;-67
2022/05/18 03:55:12;;;;;;;;;;;11.50;99.90;;;;;;5100150;28;21346;-67
2022/05/18 03:57:37;;;;;;;;;;;11.40;99.90;;;;;;5097474;28;19912;-66
2022/05/18 04:00:04;;;;;;;;;;;11.40;99.90;;;;;;5099115;28;19919;-67
2022/05/18 04:02:30;;;;;;;;;;;11.50;99.90;;;;;;5096735;28;20423;-67
2022/05/18 04:04:55;;;;;;;;;;;11.50;99.90;;;;;;5079824;28;19999;-66
2022/05/18 04:07:21;;;;;;;;;;;11.40;99.90;;;;;;5093664;28;20253;-66
2022/05/18 04:09:47;;;;;;;;;;;11.40;99.90;;;;;;5096381;28;19920;-66
2022/05/18 04:12:13;;;;;;;;;;;11.30;99.90;;;;;;5099723;28;19912;-67
2022/05/18 04:14:39;;;;;;;;;;;11.40;99.90;;;;;;5096302;28;19920;-66
2022/05/18 04:17:04;;;;;;;;;;;11.50;99.90;;;;;;5091947;28;19926;-66
2022/05/18 04:19:30;;;;;;;;;;;11.70;99.90;;;;;;5096524;28;19916;-66
2022/05/18 04:21:55;;;;;;;;;;;11.60;99.90;;;;;;5102727;28;19918;-67
2022/05/18 04:24:21;;;;;;;;;;;11.40;99.90;;;;;;5101725;28;19920;-65
2022/05/18 04:26:46;;;;;;;;;;;11.50;99.90;;;;;;5096141;28;20285;-67
2022/05/18 04:29:12;;;;;;;;;;;11.40;99.90;;;;;;5099798;28;19916;-67
2022/05/18 04:31:38;;;;;;;;;;;11.40;99.90;;;;;;5100928;28;19923;-65
2022/05/18 04:34:04;;;;;;;;;;;11.40;99.90;;;;;;5101630;28;20005;-66
2022/05/18 04:36:30;;;;;;;;;;;11.50;99.90;;;;;;5107991;28;20373;-66
2022/05/18 04:38:55;;;;;;;;;;;11.40;99.90;;;;;;5104606;28;19985;-67
2022/05/18 04:41:21;;;;;;;;;;;11.20;99.90;;;;;;5096394;28;19916;-67
2022/05/18 04:43:46;;;;;;;;;;;11.20;99.90;;;;;;5102352;28;19922;-67
2022/05/18 04:46:12;;;;;;;;;;;11.20;99.90;;;;;;5103600;28;19923;-67
2022/05/18 04:48:37;;;;;;;;;;;11.20;99.90;;;;;;5104092;28;20041;-66
2022/05/18 04:51:05;;;;;;;;;;;11.10;99.90;;;;;;5103613;28;19923;-67
2022/05/18 04:53:31;;;;;;;;;;;11.20;99.90;;;;;;5103803;28;19919;-67
2022/05/18 04:55:57;;;;;;;;;;;11.40;99.90;;;;;;5064287;28;19922;-66
2022/05/18 04:58:23;;;;;;;;;;;11.30;99.90;;;;;;5101162;27;19911;-67
2022/05/18 05:00:59;;;;;;;;;;;11.20;99.90;;;;;;5100674;28;20169;-67
2022/05/18 05:03:25;;;;;;;;;;;11.10;99.90;;;;;;5104526;28;19954;-66
2022/05/18 05:05:51;;;;;;;;;;;11.10;99.90;;;;;;5101308;28;19944;-67
2022/05/18 05:08:16;;;;;;;;;;;11.10;99.90;;;;;;5093433;28;19954;-67
2022/05/18 05:10:42;;;;;;;;;;;11.20;99.90;;;;;;5102078;28;19924;-66
2022/05/18 05:13:07;;;;;;;;;;;11.10;99.90;;;;;;5100226;28;19940;-67
2022/05/18 05:15:33;;;;;;;;;;;11.20;99.90;;;;;;5082671;28;19913;-68
2022/05/18 05:17:59;;;;;;;;;;;11.20;99.90;;;;;;5100506;28;19911;-65
2022/05/18 05:20:24;;;;;;;;;;;11.10;99.90;;;;;;5097942;28;19920;-65
2022/05/18 05:22:50;;;;;;;;;;;11.10;99.90;;;;;;5102406;28;19926;-66
2022/05/18 05:25:16;;;;;;;;;;;11.10;99.90;;;;;;5098297;28;20019;-66
2022/05/18 05:27:41;;;;;;;;;;;11.10;99.90;;;;;;5096018;28;19993;-67
2022/05/18 05:30:08;;;;;;;;;;;11.10;99.90;;;;;;5093869;28;19923;-65
2022/05/18 05:32:34;;;;;;;;;;;11.00;99.90;;;;;;5091209;27;19916;-67
2022/05/18 05:34:59;;;;;;;;;;;11.10;99.90;;;;;;5098578;28;19922;-67
2022/05/18 05:37:25;;;;;;;;;;;11.10;99.90;;;;;;5089525;28;19928;-68
2022/05/18 05:39:51;;;;;;;;;;;11.20;99.90;;;;;;5090822;27;19982;-66
2022/05/18 05:42:16;;;;;;;;;;;11.30;99.90;;;;;;5090200;28;19927;-67
2022/05/18 05:44:42;;;;;;;;;;;11.40;99.90;;;;;;5100322;28;20250;-67
2022/05/18 05:47:09;;;;;;;;;;;11.50;99.90;;;;;;5098297;28;20474;-67
2022/05/18 05:49:34;;;;;;;;;;;11.50;99.90;;;;;;5101486;28;19916;-67
2022/05/18 05:52:00;;;;;;;;;;;11.60;99.90;;;;;;5092908;28;19938;-66
2022/05/18 05:54:26;;;;;;;;;;;11.80;99.90;;;;;;5101466;27;19941;-66
2022/05/18 05:56:52;;;;;;;;;;;11.90;99.90;;;;;;5098967;28;19916;-66
2022/05/18 05:59:19;;;;;;;;;;;12.00;99.90;;;;;;5092730;28;20714;-66
2022/05/18 06:01:45;;;;;;;;;;;12.00;99.90;;;;;;5078407;28;19919;-67
2022/05/18 06:04:10;;;;;;;;;;;12.00;99.90;;;;;;5096947;28;19920;-65
2022/05/18 06:06:37;;;;;;;;;;;12.10;99.90;;;;;;5098861;28;19994;-66
2022/05/18 06:09:07;;;;;;;;;;;12.20;99.90;;;;;;5099862;27;20269;-66
2022/05/18 06:11:33;;;;;;;;;;;12.30;99.90;;;;;;5094062;28;20254;-66
2022/05/18 06:13:59;;;;;;;;;;;12.50;99.90;;;;;;5098168;28;20334;-66
2022/05/18 06:16:25;;;;;;;;;;;12.60;99.90;;;;;;5080971;28;20034;-67
2022/05/18 06:18:50;;;;;;;;;;;12.80;99.90;;;;;;5099443;28;19977;-66
2022/05/18 06:21:16;;;;;;;;;;;12.90;99.90;;;;;;5095887;28;19919;-67
2022/05/18 06:23:42;;;;;;;;;;;13.10;99.90;;;;;;5100972;28;20245;-67
2022/05/18 06:26:07;;;;;;;;;;;13.20;99.90;;;;;;5099450;28;19912;-67
2022/05/18 06:28:36;;;;;;;;;;;13.40;99.90;;;;;;5098973;28;20338;-65
2022/05/18 06:31:02;;;;;;;;;;;13.60;99.90;;;;;;5095190;28;20280;-68
2022/05/18 06:33:28;;;;;;;;;;;13.90;99.90;;;;;;5091439;28;19919;-68
2022/05/18 06:35:53;;;;;;;;;;;14.10;99.90;;;;;;5096022;28;19916;-70
2022/05/18 06:38:20;;;;;;;;;;;14.10;99.90;;;;;;5099464;27;19920;-67
2022/05/18 06:43:30;;;;;;;;;;;14.50;99.90;;;;;;5100901;28;19919;-67
2022/05/18 06:45:56;;;;;;;;;;;14.70;99.90;;;;;;5101369;28;19915;-67
2022/05/18 06:48:22;;;;;;;;;;;14.60;99.90;;;;;;5094300;27;20329;-67
2022/05/18 06:50:47;;;;;;;;;;;14.60;99.90;;;;;;5096530;27;19919;-67
2022/05/18 06:53:13;;;;;;;;;;;14.60;99.90;;;;;;5096302;27;19971;-67
2022/05/18 06:55:38;;;;;;;;;;;14.80;99.90;;;;;;5099868;28;19927;-68
2022/05/18 06:58:04;;;;;;;;;;;14.90;99.90;;;;;;5097283;28;19912;-67
2022/05/18 07:00:30;;;;;;;;;;;15.00;99.90;;;;;;5079186;28;19912;-69
2022/05/18 07:02:55;;;;;;;;;;;15.30;99.90;;;;;;5096512;28;20441;-67
2022/05/18 07:05:21;;;;;;;;;;;15.30;99.90;;;;;;5086000;28;20258;-68
2022/05/18 07:07:46;;;;;;;;;;;15.20;99.90;;;;;;5103840;28;19976;-65
2022/05/18 07:10:12;;;;;;;;;;;15.20;99.90;;;;;;5096204;28;20027;-66
2022/05/18 07:12:37;;;;;;;;;;;15.30;99.90;;;;;;5095433;28;19935;-65
2022/05/18 07:15:04;;;;;;;;;;;15.50;99.90;;;;;;5079748;28;19923;-65
2022/05/18 07:17:30;;;;;;;;;;;15.70;99.90;;;;;;5083743;28;19919;-64
2022/05/18 07:19:55;;;;;;;;;;;15.70;99.90;;;;;;5079440;28;20226;-67
2022/05/18 07:22:21;;;;;;;;;;;15.90;99.90;;;;;;5103017;28;19939;-66
2022/05/18 07:24:46;;;;;;;;;;;15.90;99.90;;;;;;5104838;28;20014;-66
2022/05/18 07:27:12;;;;;;;;;;;15.80;99.90;;;;;;5084754;28;19912;-65
2022/05/18 07:29:37;;;;;;;;;;;15.90;99.90;;;;;;5104113;28;19959;-67
2022/05/18 07:32:12;;;;;;;;;;;15.90;99.90;;;;;;5097828;28;20423;-65
2022/05/18 07:34:38;;;;;;;;;;;15.60;99.90;;;;;;5093401;28;19927;-67
2022/05/18 07:37:04;;;;;;;;;;;15.50;99.90;;;;;;5104496;28;19915;-65
2022/05/18 07:39:30;;;;;;;;;;;15.60;99.90;;;;;;5079869;28;19935;-65
2022/05/18 07:41:56;;;;;;;;;;;15.80;99.90;;;;;;5101919;28;20338;-65
2022/05/18 07:44:22;;;;;;;;;;;16.00;99.90;;;;;;5101884;28;19919;-67
2022/05/18 07:46:48;;;;;;;;;;;16.10;99.90;;;;;;5102863;28;20373;-66
2022/05/18 07:49:14;;;;;;;;;;;16.20;99.90;;;;;;5103420;28;19932;-66
2022/05/18 07:51:39;;;;;;;;;;;16.20;99.90;;;;;;5095526;28;19923;-63
2022/05/18 07:54:05;;;;;;;;;;;16.40;99.90;;;;;;5088539;28;19919;-65
2022/05/18 07:56:30;;;;;;;;;;;16.30;99.90;;;;;;5097574;28;20024;-66
2022/05/18 07:58:56;;;;;;;;;;;16.40;99.90;;;;;;5099872;28;20357;-66
2022/05/18 08:01:25;;;;;;;;;;;16.30;99.90;;;;;;5111218;28;20215;-66
2022/05/18 08:03:50;;;;;;;;;;;16.20;99.90;;;;;;5103856;28;19912;-66
2022/05/18 08:06:16;;;;;;;;;;;16.20;99.90;;;;;;5080611;28;19912;-66
2022/05/18 08:08:42;;;;;;;;;;;16.10;99.90;;;;;;5105581;28;20281;-67
2022/05/18 08:16:36;;;;;;;;;;;16.40;99.90;;;;;;5108657;28;19919;-65
2022/05/18 08:19:02;;;;;;;;;;;16.40;99.90;;;;;;5097749;28;19924;-65
2022/05/18 08:21:27;;;;;;;;;;;16.40;99.90;;;;;;5111023;28;19919;-66
2022/05/18 08:23:53;;;;;;;;;;;16.50;99.90;;;;;;5101933;28;19948;-66
2022/05/18 08:26:19;;;;;;;;;;;16.50;99.90;;;;;;5105994;28;20285;-65
2022/05/18 08:28:44;;;;;;;;;;;16.50;99.90;;;;;;5105049;28;19947;-67
2022/05/18 08:31:10;;;;;;;;;;;16.60;99.90;;;;;;5104769;28;19923;-65
2022/05/18 08:33:35;;;;;;;;;;;16.90;99.90;;;;;;5106243;28;20439;-66
2022/05/18 08:36:06;;;;;;;;;;;17.30;99.90;;;;;;5082786;28;19912;-66
2022/05/18 08:38:32;;;;;;;;;;;17.60;99.90;;;;;;5108870;28;20014;-66
2022/05/18 08:41:15;;;;;;;;;;;17.70;99.90;;;;;;5108349;28;19912;-65
2022/05/18 08:43:44;;;;;;;;;;;17.50;99.90;;;;;;5103438;28;19915;-66
2022/05/18 08:46:12;;;;;;;;;;;17.60;99.90;;;;;;5102886;28;20309;-67
2022/05/18 08:48:38;;;;;;;;;;;17.70;99.90;;;;;;5103772;28;19920;-66
2022/05/18 08:51:11;;;;;;;;;;;17.80;99.90;;;;;;5099997;28;19972;-66
2022/05/18 08:53:49;;;;;;;;;;;18.00;99.90;;;;;;5085994;28;19912;-66
2022/05/18 08:56:22;;;;;;;;;;;18.30;99.90;;;;;;5101716;28;20029;-66
2022/05/18 08:58:48;;;;;;;;;;;18.50;99.90;;;;;;5105503;28;20238;-66
2022/05/18 09:01:17;;;;;;;;;;;18.30;99.90;;;;;;5109543;28;20002;-65
2022/05/18 09:03:49;;;;;;;;;;;18.30;99.90;;;;;;5105157;28;20224;-65
2022/05/18 09:06:23;;;;;;;;;;;18.10;99.90;;;;;;5108712;28;19991;-66
2022/05/18 09:10:12;;;;;;;;;;;18.10;99.90;;;;;;5108275;28;20341;-66
2022/05/18 09:11:37;;;;;;;;;;;18.20;99.90;;;;;;5111595;28;19916;-66
2022/05/18 09:14:03;;;;;;;;;;;18.60;99.90;;;;;;5105695;28;20015;-65
2022/05/18 09:16:40;;;;;;;;;;;18.60;99.90;;;;;;5104361;28;19912;-67
2022/05/18 09:19:14;;;;;;;;;;;18.60;99.90;;;;;;5101216;28;19912;-66
2022/05/18 09:21:58;;;;;;;;;;;18.60;99.90;;;;;;5109134;28;19919;-65
2022/05/18 09:24:27;;;;;;;;;;;18.60;99.90;;;;;;5083117;28;19919;-66
2022/05/18 09:26:55;;;;;;;;;;;18.70;99.90;;;;;;5103820;28;19946;-66
2022/05/18 09:29:39;;;;;;;;;;;18.70;99.90;;;;;;5107550;28;20351;-66
2022/05/18 09:32:13;;;;;;;;;;;18.80;99.90;;;;;;5085937;28;19916;-66
2022/05/18 09:34:45;;;;;;;;;;;18.70;99.90;;;;;;5085227;28;20007;-65
2022/05/18 09:37:29;;;;;;;;;;;18.80;99.90;;;;;;5100556;28;19973;-66
2022/05/18 09:40:33;;;;;;;;;;;19.00;99.90;;;;;;5106171;28;19919;-66
2022/05/18 09:43:18;;;;;;;;;;;18.90;99.90;;;;;;5038803;28;19912;-67
2022/05/18 09:45:45;;;;;;;;;;;18.80;99.90;;;;;;5039606;28;19920;-65
2022/05/18 09:48:11;;;;;;;;;;;18.70;99.90;;;;;;5081192;28;19923;-66
2022/05/18 09:50:37;;;;;;;;;;;19.00;99.90;;;;;;5088239;28;19916;-67
2022/05/18 09:53:04;;;;;;;;;;;19.10;99.90;;;;;;5100202;28;19916;-66
2022/05/18 09:55:30;;;;;;;;;;;19.10;99.90;;;;;;5101451;28;19916;-67
2022/05/18 09:58:13;;;;;;;;;;;19.00;99.90;;;;;;5104641;28;19956;-66
2022/05/18 10:00:39;;;;;;;;;;;19.10;99.90;;;;;;5099032;28;20045;-66
2022/05/18 10:08:56;;;;;;;;;;;18.90;99.90;;;;;;5107245;28;19927;-66
2022/05/18 10:11:33;;;;;;;;;;;18.90;99.90;;;;;;5087337;28;19919;-66
2022/05/18 10:14:06;;;;;;;;;;;18.90;99.90;;;;;;5107088;28;19911;-66
2022/05/18 10:16:47;;;;;;;;;;;18.80;99.90;;;;;;5102272;28;19919;-67
2022/05/18 10:19:21;;;;;;;;;;;19.10;99.90;;;;;;5100263;28;19911;-66
2022/05/18 10:21:50;;;;;;;;;;;19.20;99.90;;;;;;5099860;28;20357;-67
2022/05/18 10:24:22;;;;;;;;;;;19.30;99.90;;;;;;5109617;28;19915;-67
2022/05/18 10:27:02;;;;;;;;;;;19.60;99.90;;;;;;5099095;28;19951;-67
2022/05/18 10:29:27;;;;;;;;;;;19.80;99.90;;;;;;5104404;28;20024;-66
2022/05/18 10:32:05;;;;;;;;;;;19.70;99.90;;;;;;5099859;28;19933;-66
2022/05/18 10:34:33;;;;;;;;;;;19.60;99.90;;;;;;5089454;28;19916;-65
2022/05/18 10:37:00;;;;;;;;;;;19.60;99.90;;;;;;5104082;28;19915;-66
2022/05/18 10:39:40;;;;;;;;;;;19.60;99.90;;;;;;5106536;28;19912;-66
2022/05/18 10:42:10;;;;;;;;;;;19.80;99.90;;;;;;5108099;28;19930;-66
2022/05/18 10:44:36;;;;;;;;;;;19.90;99.90;;;;;;5104018;28;19916;-67
2022/05/18 10:47:14;;;;;;;;;;;20.00;99.90;;;;;;5102734;28;19926;-66
2022/05/18 10:49:40;;;;;;;;;;;20.00;99.90;;;;;;5109393;28;19926;-68
2022/05/18 10:52:11;;;;;;;;;;;20.20;99.90;;;;;;5101739;28;19941;-65
2022/05/18 10:54:36;;;;;;;;;;;20.40;99.90;;;;;;5102709;28;19912;-66
2022/05/18 10:57:12;;;;;;;;;;;20.30;99.90;;;;;;5101786;28;19999;-65
2022/05/18 10:59:51;;;;;;;;;;;20.10;99.90;;;;;;5083107;28;19916;-66
2022/05/18 11:02:28;;;;;;;;;;;19.80;99.90;;;;;;5106473;28;19912;-66
2022/05/18 11:05:17;;;;;;;;;;;19.90;99.90;;;;;;5107010;28;19928;-66
2022/05/18 11:07:43;;;;;;;;;;;20.10;99.90;;;;;;5096056;28;20004;-66
2022/05/18 11:10:09;;;;;;;;;;;20.10;99.90;;;;;;5083400;28;19999;-67
2022/05/18 11:12:47;;;;;;;;;;;20.10;99.90;;;;;;5101627;28;19912;-66
2022/05/18 11:15:18;;;;;;;;;;;20.20;99.90;;;;;;5106428;28;19912;-66
2022/05/18 11:17:44;;;;;;;;;;;20.40;99.90;;;;;;5086323;28;19942;-67
2022/05/18 11:20:15;;;;;;;;;;;20.50;99.90;;;;;;5101566;28;19917;-66
2022/05/18 11:22:51;;;;;;;;;;;20.70;99.90;;;;;;5102919;28;19919;-66
2022/05/18 11:25:20;;;;;;;;;;;20.40;99.90;;;;;;5077925;28;19912;-67
2022/05/18 11:27:50;;;;;;;;;;;20.40;99.90;;;;;;5102396;28;19969;-66
2022/05/18 11:30:15;;;;;;;;;;;20.50;99.90;;;;;;5100332;28;20052;-65
2022/05/18 11:33:00;;;;;;;;;;;20.70;99.90;;;;;;5103481;28;20035;-67
2022/05/18 11:35:35;;;;;;;;;;;20.80;99.00;;;;;;5102279;28;20003;-66
2022/05/18 11:38:07;;;;;;;;;;;20.90;99.50;;;;;;5105738;28;20012;-67
2022/05/18 11:40:38;;;;;;;;;;;21.40;98.50;;;;;;5101249;28;19912;-66
2022/05/18 11:43:25;;;;;;;;;;;21.40;98.80;;;;;;5106455;28;20329;-66
2022/05/18 11:45:54;;;;;;;;;;;21.70;97.20;;;;;;5080781;28;19920;-67
2022/05/18 11:48:38;;;;;;;;;;;21.40;95.50;;;;;;5085554;28;19919;-66
2022/05/18 11:51:06;;;;;;;;;;;21.00;96.10;;;;;;5090562;28;19919;-67
2022/05/18 11:53:51;;;;;;;;;;;21.00;95.90;;;;;;5086900;28;19912;-67
2022/05/18 11:56:24;;;;;;;;;;;21.20;96.10;;;;;;5100428;28;19930;-67
2022/05/18 11:59:28;;;;;;;;;;;21.70;96.30;;;;;;5106887;28;20246;-65
2022/05/18 12:01:53;;;;;;;;;;;21.80;96.40;;;;;;5110412;28;19912;-67
2022/05/18 12:04:19;;;;;;;;;;;21.70;96.30;;;;;;5110821;28;19965;-66
2022/05/18 12:06:44;;;;;;;;;;;21.40;95.20;;;;;;5094040;28;19908;-66
2022/05/18 12:09:16;;;;;;;;;;;21.30;96.30;;;;;;5077146;28;19920;-66
2022/05/18 12:12:00;;;;;;;;;;;21.50;95.50;;;;;;5095025;28;19957;-66
2022/05/18 12:14:47;;;;;;;;;;;21.60;93.60;;;;;;5079537;28;20011;-67
2022/05/18 12:17:19;;;;;;;;;;;21.60;93.70;;;;;;5102110;28;19912;-67
2022/05/18 12:20:04;;;;;;;;;;;21.70;94.00;;;;;;5108294;28;20428;-67
2022/05/18 12:22:40;;;;;;;;;;;21.70;93.50;;;;;;5101002;28;19967;-65
2022/05/18 12:25:07;;;;;;;;;;;21.60;93.20;;;;;;5096809;28;19912;-67
2022/05/18 12:27:33;;;;;;;;;;;21.50;92.50;;;;;;5090199;28;19911;-67
2022/05/18 12:30:01;;;;;;;;;;;21.20;93.40;;;;;;5112808;28;19920;-68
2022/05/18 12:32:27;;;;;;;;;;;21.20;94.20;;;;;;5109176;28;20311;-66
2022/05/18 12:35:16;;;;;;;;;;;21.20;94.50;;;;;;5094643;28;19908;-66
2022/05/18 12:37:49;;;;;;;;;;;21.30;93.60;;;;;;5094740;28;19996;-65
2022/05/18 12:40:15;;;;;;;;;;;21.30;93.80;;;;;;5114197;28;19915;-65
2022/05/18 12:42:58;;;;;;;;;;;21.50;93.60;;;;;;5101084;28;19915;-66
2022/05/18 12:45:26;;;;;;;;;;;21.60;93.30;;;;;;5106709;28;20051;-65
2022/05/18 12:48:05;;;;;;;;;;;21.30;93.60;;;;;;5102610;28;19915;-66
2022/05/18 12:50:34;;;;;;;;;;;21.40;93.70;;;;;;5106812;28;19919;-65
2022/05/18 12:53:01;;;;;;;;;;;21.50;93.90;;;;;;5080601;28;19912;-67
2022/05/18 12:55:43;;;;;;;;;;;21.70;93.90;;;;;;5103695;28;19974;-66
2022/05/18 12:58:08;;;;;;;;;;;21.70;93.70;;;;;;5100339;28;20515;-67
2022/05/18 13:00:37;;;;;;;;;;;21.70;93.70;;;;;;5107212;28;20228;-67
2022/05/18 13:03:08;;;;;;;;;;;21.80;93.00;;;;;;5102267;28;19912;-66
2022/05/18 13:05:41;;;;;;;;;;;21.70;93.80;;;;;;5101661;28;19989;-66
2022/05/18 13:08:10;;;;;;;;;;;21.80;92.40;;;;;;5106302;28;19912;-66
2022/05/18 13:10:37;;;;;;;;;;;21.70;92.70;;;;;;5089587;28;20461;-67
2022/05/18 13:13:22;;;;;;;;;;;21.50;92.50;;;;;;5103965;28;19912;-67
2022/05/18 13:15:48;;;;;;;;;;;21.60;92.20;;;;;;5106480;28;19964;-65
2022/05/18 13:18:15;;;;;;;;;;;21.80;92.00;;;;;;5104658;28;20014;-65
2022/05/18 13:20:59;;;;;;;;;;;21.90;92.60;;;;;;5104567;28;19923;-66
2022/05/18 13:23:25;;;;;;;;;;;22.00;92.20;;;;;;5105661;28;19987;-65
2022/05/18 13:25:58;;;;;;;;;;;22.10;92.30;;;;;;5103347;28;19985;-66
2022/05/18 13:28:25;;;;;;;;;;;22.40;91.70;;;;;;5108294;28;20009;-66
2022/05/18 13:30:52;;;;;;;;;;;22.60;92.20;;;;;;5102813;28;19920;-65
2022/05/18 13:33:18;;;;;;;;;;;22.80;92.20;;;;;;5100273;28;19923;-66
2022/05/18 13:35:46;;;;;;;;;;;22.70;91.50;;;;;;5104034;28;19912;-66
2022/05/18 13:38:22;;;;;;;;;;;22.60;91.40;;;;;;5105816;28;19919;-66
2022/05/18 13:40:51;;;;;;;;;;;22.50;91.00;;;;;;5105417;28;19923;-65
2022/05/18 13:43:20;;;;;;;;;;;22.60;91.40;;;;;;5102642;28;19912;-66
2022/05/18 13:45:49;;;;;;;;;;;23.00;91.30;;;;;;5106272;28;19923;-66
2022/05/18 13:48:16;;;;;;;;;;;23.00;91.90;;;;;;5100991;28;19930;-66
2022/05/18 13:50:53;;;;;;;;;;;23.10;92.20;;;;;;5105547;28;19921;-65
2022/05/18 13:53:29;;;;;;;;;;;23.10;91.50;;;;;;5102806;28;20408;-65
2022/05/18 13:55:57;;;;;;;;;;;22.90;91.50;;;;;;5078907;28;19920;-66
2022/05/18 13:58:24;;;;;;;;;;;23.00;91.30;;;;;;5101404;28;19964;-67
2022/05/18 14:00:55;;;;;;;;;;;23.00;91.30;;;;;;5108805;28;20322;-66
2022/05/18 14:03:22;;;;;;;;;;;23.00;90.40;;;;;;5108540;28;20002;-67
2022/05/18 14:05:49;;;;;;;;;;;22.70;90.20;;;;;;5108918;28;19918;-66
2022/05/18 14:08:24;;;;;;;;;;;22.80;90.40;;;;;;5106152;28;20345;-66
2022/05/18 14:10:49;;;;;;;;;;;22.70;90.50;;;;;;5109134;28;20285;-66
2022/05/18 14:13:15;;;;;;;;;;;22.20;90.80;;;;;;5102491;28;19922;-67
2022/05/18 14:15:41;;;;;;;;;;;22.00;91.40;;;;;;5105945;28;20337;-65
2022/05/18 14:18:09;;;;;;;;;;;21.90;91.90;;;;;;5104021;28;20500;-66
2022/05/18 14:20:37;;;;;;;;;;;21.70;92.10;;;;;;5084723;28;19933;-66
2022/05/18 14:23:04;;;;;;;;;;;21.40;92.00;;;;;;5104393;28;20330;-65
2022/05/18 14:25:31;;;;;;;;;;;21.30;91.90;;;;;;5109315;28;20238;-66
2022/05/18 14:27:59;;;;;;;;;;;20.90;92.20;;;;;;5098602;28;20271;-66
2022/05/18 14:30:29;;;;;;;;;;;20.90;92.50;;;;;;5104389;28;20265;-68
2022/05/18 14:33:18;;;;;;;;;;;21.00;92.70;;;;;;5107098;28;19990;-66
2022/05/18 14:35:46;;;;;;;;;;;21.00;92.60;;;;;;5090446;28;19938;-67
2022/05/18 14:38:17;;;;;;;;;;;21.00;92.90;;;;;;5100429;28;19920;-65
2022/05/18 14:40:46;;;;;;;;;;;21.10;93.00;;;;;;5100855;28;19919;-65
2022/05/18 14:43:14;;;;;;;;;;;21.20;92.60;;;;;;5106167;28;19955;-65
2022/05/18 14:45:45;;;;;;;;;;;21.00;93.00;;;;;;5078544;28;19913;-64